createdAt,value
2023-04-27T06:49:02.300Z,97478.06
2023-04-27T11:10:23.124Z,97334.50
2023-04-27T11:12:51.448Z,97349.56
2023-04-27T11:15:19.837Z,97328.94
2023-04-27T11:17:48.261Z,97330.22
2023-04-27T11:20:24.256Z,97325.34
2023-04-27T11:22:51.916Z,97330.06
2023-04-27T11:36:47.670Z,97344.69
2023-04-27T11:42:39.296Z,97323.78
2023-04-27T11:45:15.182Z,97310.72
2023-04-27T11:50:32.849Z,97323.09
2023-04-27T11:55:47.694Z,97322.13
2023-04-27T11:58:19.724Z,97337.81
2023-04-27T12:00:47.789Z,97327.44
2023-04-27T12:08:37.669Z,97317.25
2023-04-27T12:11:05.691Z,97315.38
2023-04-27T12:13:42.030Z,97305.03
2023-04-27T12:16:13.574Z,97300.41
2023-04-27T12:18:41.361Z,97317.06
2023-04-27T12:21:08.816Z,97296.06
2023-04-27T12:23:37.522Z,97295.41
2023-04-27T12:26:14.382Z,97298.44
2023-04-27T12:28:42.151Z,97282.94
2023-04-27T12:31:09.276Z,97291.19
2023-04-27T12:33:36.550Z,97290.97
2023-04-27T12:36:03.797Z,97279.69
2023-04-27T12:38:31.056Z,97285.28
2023-04-27T12:40:59.501Z,97273.69
2023-04-27T12:43:27.000Z,97264.28
2023-04-27T12:45:54.132Z,97265.31
2023-04-27T12:48:23.128Z,97268.72
2023-04-27T12:50:50.343Z,97274.28
2023-04-27T12:53:17.328Z,97264.88
2023-04-27T12:55:44.289Z,97262.84
2023-04-27T12:58:11.236Z,97255.50
2023-04-27T13:00:40.534Z,97259.03
2023-04-27T13:03:08.174Z,97261.06
2023-04-27T13:05:36.104Z,97264.09
2023-04-27T13:08:06.293Z,97254.13
2023-04-27T13:10:33.390Z,97248.41
2023-04-27T13:13:00.352Z,97260.41
2023-04-27T13:15:27.299Z,97265.19
2023-04-27T13:17:54.637Z,97254.84
2023-04-27T13:20:21.926Z,97262.22
2023-04-27T13:22:48.767Z,97239.66
2023-04-27T13:25:16.883Z,97243.22
2023-04-27T13:27:44.017Z,97235.16
2023-04-27T13:30:10.962Z,97251.38
2023-04-27T13:32:38.400Z,97240.00
2023-04-27T13:35:07.950Z,97244.53
2023-04-27T13:37:35.398Z,97255.66
2023-04-27T13:40:03.369Z,97258.31
2023-04-27T13:42:30.356Z,97258.31
2023-04-27T13:44:58.137Z,97242.69
2023-04-27T13:47:26.811Z,97249.06
2023-04-27T13:49:54.378Z,97248.44
2023-04-27T13:52:29.559Z,97244.69
2023-04-27T13:54:57.581Z,97246.09
2023-04-27T13:57:24.904Z,97228.78
2023-04-27T14:02:32.995Z,97232.38
2023-04-27T14:05:01.043Z,97227.28
2023-04-27T14:07:28.022Z,97241.25
2023-04-27T14:09:54.863Z,97232.94
2023-04-27T14:12:21.799Z,97235.69
2023-04-27T14:14:50.471Z,97225.28
2023-04-27T14:17:17.541Z,97214.56
2023-04-27T14:19:44.468Z,97234.56
2023-04-27T14:22:11.714Z,97234.25
2023-04-27T14:24:38.939Z,97229.88
2023-04-27T14:27:06.012Z,97226.94
2023-04-27T14:29:33.547Z,97214.84
2023-04-27T14:42:53.606Z,97219.34
2023-04-27T14:48:01.829Z,97209.22
2023-04-27T14:50:30.980Z,97208.81
2023-04-27T14:55:41.863Z,97203.06
2023-04-27T15:00:59.258Z,97205.41
2023-04-27T15:03:28.088Z,97205.16
2023-04-27T15:11:26.343Z,97210.00
2023-04-27T15:16:35.565Z,97177.03
2023-04-27T15:21:45.161Z,97182.78
2023-04-27T15:24:16.131Z,97196.34
2023-04-27T16:01:30.016Z,97149.97
2023-04-27T16:17:29.964Z,97149.97
2023-04-27T16:28:08.435Z,97158.44
2023-04-27T16:33:17.881Z,97150.00
2023-04-27T16:35:49.350Z,97169.03
